sensor_id;sensor_type;location;lat;lon;timestamp;P1;durP1;ratioP1;P2;durP2;ratioP2
48002;SDS011;33768;48.578;11.574;2023-07-20T00:02:44;6.47;;;3.70;;
48002;SDS011;33768;48.578;11.574;2023-07-20T00:05:49;4.27;;;3.87;;
48002;SDS011;33768;48.578;11.574;2023-07-20T00:08:53;6.20;;;3.73;;
48002;SDS011;33768;48.578;11.574;2023-07-20T00:11:58;4.40;;;3.10;;
48002;SDS011;33768;48.578;11.574;2023-07-20T00:15:04;5.50;;;3.43;;
48002;SDS011;33768;48.578;11.574;2023-07-20T00:18:08;9.17;;;3.63;;
48002;SDS011;33768;48.578;11.574;2023-07-20T00:21:12;5.17;;;3.67;;
48002;SDS011;33768;48.578;11.574;2023-07-20T00:24:16;6.00;;;3.53;;
48002;SDS011;33768;48.578;11.574;2023-07-20T00:27:21;4.63;;;3.37;;
48002;SDS011;33768;48.578;11.574;2023-07-20T00:30:25;5.77;;;3.73;;
48002;SDS011;33768;48.578;11.574;2023-07-20T00:33:32;6.50;;;3.67;;
48002;SDS011;33768;48.578;11.574;2023-07-20T00:36:36;5.03;;;3.70;;
48002;SDS011;33768;48.578;11.574;2023-07-20T00:39:40;5.97;;;3.60;;
48002;SDS011;33768;48.578;11.574;2023-07-20T00:42:44;4.53;;;3.43;;
48002;SDS011;33768;48.578;11.574;2023-07-20T00:45:49;4.73;;;2.93;;
48002;SDS011;33768;48.578;11.574;2023-07-20T00:48:55;8.93;;;3.47;;
48002;SDS011;33768;48.578;11.574;2023-07-20T00:52:00;10.53;;;3.33;;
48002;SDS011;33768;48.578;11.574;2023-07-20T00:55:06;4.87;;;3.53;;
48002;SDS011;33768;48.578;11.574;2023-07-20T00:58:11;7.73;;;3.60;;
48002;SDS011;33768;48.578;11.574;2023-07-20T01:01:15;7.47;;;3.77;;
48002;SDS011;33768;48.578;11.574;2023-07-20T01:04:19;7.73;;;3.70;;
48002;SDS011;33768;48.578;11.574;2023-07-20T01:07:25;6.13;;;3.50;;
48002;SDS011;33768;48.578;11.574;2023-07-20T01:13:43;4.73;;;3.47;;
48002;SDS011;33768;48.578;11.574;2023-07-20T01:16:47;6.57;;;3.53;;
48002;SDS011;33768;48.578;11.574;2023-07-20T01:19:53;7.83;;;3.67;;
48002;SDS011;33768;48.578;11.574;2023-07-20T01:26:51;8.30;;;3.77;;
48002;SDS011;33768;48.578;11.574;2023-07-20T01:30:35;4.83;;;3.57;;
48002;SDS011;33768;48.578;11.574;2023-07-20T01:33:43;6.97;;;3.93;;
48002;SDS011;33768;48.578;11.574;2023-07-20T01:36:50;5.80;;;3.57;;
48002;SDS011;33768;48.578;11.574;2023-07-20T01:39:57;7.73;;;3.93;;
48002;SDS011;33768;48.578;11.574;2023-07-20T01:43:02;5.73;;;3.30;;
48002;SDS011;33768;48.578;11.574;2023-07-20T01:46:06;5.33;;;3.40;;
48002;SDS011;33768;48.578;11.574;2023-07-20T01:49:11;8.33;;;3.50;;
48002;SDS011;33768;48.578;11.574;2023-07-20T01:52:15;9.60;;;3.50;;
48002;SDS011;33768;48.578;11.574;2023-07-20T01:55:19;6.23;;;3.60;;
48002;SDS011;33768;48.578;11.574;2023-07-20T01:58:23;6.87;;;3.40;;
48002;SDS011;33768;48.578;11.574;2023-07-20T02:01:28;5.63;;;3.20;;
48002;SDS011;33768;48.578;11.574;2023-07-20T02:04:32;5.67;;;3.70;;
48002;SDS011;33768;48.578;11.574;2023-07-20T02:07:36;5.83;;;3.47;;
48002;SDS011;33768;48.578;11.574;2023-07-20T02:10:40;8.80;;;3.37;;
48002;SDS011;33768;48.578;11.574;2023-07-20T02:13:44;3.77;;;2.83;;
48002;SDS011;33768;48.578;11.574;2023-07-20T02:16:48;4.93;;;3.27;;
48002;SDS011;33768;48.578;11.574;2023-07-20T02:19:57;4.37;;;2.57;;
48002;SDS011;33768;48.578;11.574;2023-07-20T02:23:04;3.20;;;2.70;;
48002;SDS011;33768;48.578;11.574;2023-07-20T02:26:08;4.93;;;2.70;;
48002;SDS011;33768;48.578;11.574;2023-07-20T02:29:12;6.77;;;2.57;;
48002;SDS011;33768;48.578;11.574;2023-07-20T02:32:16;5.40;;;2.80;;
48002;SDS011;33768;48.578;11.574;2023-07-20T02:35:20;7.37;;;2.90;;
48002;SDS011;33768;48.578;11.574;2023-07-20T02:38:25;3.67;;;2.07;;
48002;SDS011;33768;48.578;11.574;2023-07-20T02:41:32;2.53;;;1.80;;
48002;SDS011;33768;48.578;11.574;2023-07-20T02:44:37;5.00;;;2.10;;
48002;SDS011;33768;48.578;11.574;2023-07-20T02:47:41;3.70;;;2.00;;
48002;SDS011;33768;48.578;11.574;2023-07-20T02:50:46;3.77;;;2.00;;
48002;SDS011;33768;48.578;11.574;2023-07-20T02:53:50;3.80;;;1.93;;
48002;SDS011;33768;48.578;11.574;2023-07-20T02:56:54;6.43;;;2.20;;
48002;SDS011;33768;48.578;11.574;2023-07-20T02:59:58;3.00;;;1.93;;
48002;SDS011;33768;48.578;11.574;2023-07-20T03:03:03;3.07;;;1.77;;
48002;SDS011;33768;48.578;11.574;2023-07-20T03:06:07;4.67;;;2.00;;
48002;SDS011;33768;48.578;11.574;2023-07-20T03:09:13;4.07;;;2.10;;
48002;SDS011;33768;48.578;11.574;2023-07-20T03:12:17;3.97;;;1.90;;
48002;SDS011;33768;48.578;11.574;2023-07-20T03:15:21;4.30;;;1.70;;
48002;SDS011;33768;48.578;11.574;2023-07-20T03:18:25;5.40;;;1.83;;
48002;SDS011;33768;48.578;11.574;2023-07-20T03:21:29;3.40;;;1.90;;
48002;SDS011;33768;48.578;11.574;2023-07-20T03:24:34;3.73;;;1.80;;
48002;SDS011;33768;48.578;11.574;2023-07-20T03:27:38;2.27;;;1.30;;
48002;SDS011;33768;48.578;11.574;2023-07-20T03:30:42;3.00;;;1.50;;
48002;SDS011;33768;48.578;11.574;2023-07-20T03:33:47;5.30;;;1.73;;
48002;SDS011;33768;48.578;11.574;2023-07-20T03:36:51;2.63;;;1.63;;
48002;SDS011;33768;48.578;11.574;2023-07-20T03:39:55;4.17;;;1.50;;
48002;SDS011;33768;48.578;11.574;2023-07-20T03:43:00;3.30;;;1.67;;
48002;SDS011;33768;48.578;11.574;2023-07-20T03:46:05;4.87;;;1.57;;
48002;SDS011;33768;48.578;11.574;2023-07-20T03:49:10;3.10;;;1.70;;
48002;SDS011;33768;48.578;11.574;2023-07-20T03:52:14;4.53;;;1.60;;
48002;SDS011;33768;48.578;11.574;2023-07-20T03:55:18;1.97;;;1.73;;
48002;SDS011;33768;48.578;11.574;2023-07-20T03:58:22;7.43;;;1.83;;
48002;SDS011;33768;48.578;11.574;2023-07-20T04:01:26;3.83;;;1.70;;
48002;SDS011;33768;48.578;11.574;2023-07-20T04:04:31;2.60;;;1.47;;
48002;SDS011;33768;48.578;11.574;2023-07-20T04:07:35;3.33;;;1.73;;
48002;SDS011;33768;48.578;11.574;2023-07-20T04:10:39;2.87;;;1.77;;
48002;SDS011;33768;48.578;11.574;2023-07-20T04:13:46;2.97;;;1.90;;
48002;SDS011;33768;48.578;11.574;2023-07-20T04:16:51;4.70;;;1.60;;
48002;SDS011;33768;48.578;11.574;2023-07-20T04:19:55;3.17;;;1.80;;
48002;SDS011;33768;48.578;11.574;2023-07-20T04:22:59;3.77;;;1.87;;
48002;SDS011;33768;48.578;11.574;2023-07-20T04:26:04;3.77;;;1.57;;
48002;SDS011;33768;48.578;11.574;2023-07-20T04:29:10;6.43;;;1.80;;
48002;SDS011;33768;48.578;11.574;2023-07-20T04:32:17;3.90;;;1.60;;
48002;SDS011;33768;48.578;11.574;2023-07-20T04:38:48;5.73;;;1.93;;
48002;SDS011;33768;48.578;11.574;2023-07-20T04:41:57;2.70;;;1.77;;
48002;SDS011;33768;48.578;11.574;2023-07-20T04:45:02;6.97;;;1.87;;
48002;SDS011;33768;48.578;11.574;2023-07-20T04:48:08;4.77;;;2.03;;
48002;SDS011;33768;48.578;11.574;2023-07-20T04:51:15;4.17;;;1.60;;
48002;SDS011;33768;48.578;11.574;2023-07-20T04:54:21;4.17;;;1.87;;
48002;SDS011;33768;48.578;11.574;2023-07-20T04:57:28;3.57;;;1.90;;
48002;SDS011;33768;48.578;11.574;2023-07-20T05:00:33;2.83;;;1.80;;
48002;SDS011;33768;48.578;11.574;2023-07-20T05:03:37;5.47;;;1.90;;
48002;SDS011;33768;48.578;11.574;2023-07-20T05:06:41;2.73;;;1.60;;
48002;SDS011;33768;48.578;11.574;2023-07-20T05:09:45;3.43;;;2.10;;
48002;SDS011;33768;48.578;11.574;2023-07-20T05:12:49;4.77;;;1.60;;
48002;SDS011;33768;48.578;11.574;2023-07-20T05:15:53;3.57;;;1.70;;
48002;SDS011;33768;48.578;11.574;2023-07-20T05:18:58;5.27;;;1.97;;
48002;SDS011;33768;48.578;11.574;2023-07-20T05:22:02;2.53;;;1.47;;
48002;SDS011;33768;48.578;11.574;2023-07-20T05:25:07;3.73;;;1.90;;
48002;SDS011;33768;48.578;11.574;2023-07-20T05:28:12;3.43;;;1.70;;
48002;SDS011;33768;48.578;11.574;2023-07-20T05:31:16;1.73;;;1.63;;
48002;SDS011;33768;48.578;11.574;2023-07-20T05:34:20;5.63;;;1.80;;
48002;SDS011;33768;48.578;11.574;2023-07-20T05:37:24;4.23;;;1.90;;
48002;SDS011;33768;48.578;11.574;2023-07-20T05:40:28;4.00;;;1.70;;
48002;SDS011;33768;48.578;11.574;2023-07-20T05:43:33;5.50;;;1.70;;
48002;SDS011;33768;48.578;11.574;2023-07-20T05:46:37;3.33;;;1.90;;
48002;SDS011;33768;48.578;11.574;2023-07-20T05:49:41;5.07;;;1.80;;
48002;SDS011;33768;48.578;11.574;2023-07-20T05:52:45;3.30;;;1.73;;
48002;SDS011;33768;48.578;11.574;2023-07-20T05:55:53;6.13;;;1.70;;
48002;SDS011;33768;48.578;11.574;2023-07-20T05:58:57;5.93;;;1.90;;
48002;SDS011;33768;48.578;11.574;2023-07-20T06:02:02;7.93;;;1.93;;
48002;SDS011;33768;48.578;11.574;2023-07-20T06:05:06;6.80;;;1.87;;
48002;SDS011;33768;48.578;11.574;2023-07-20T06:08:14;3.47;;;1.90;;
48002;SDS011;33768;48.578;11.574;2023-07-20T06:11:19;2.60;;;1.63;;
48002;SDS011;33768;48.578;11.574;2023-07-20T06:14:23;4.97;;;2.00;;
48002;SDS011;33768;48.578;11.574;2023-07-20T06:17:27;4.97;;;1.77;;
48002;SDS011;33768;48.578;11.574;2023-07-20T06:20:31;4.30;;;2.13;;
48002;SDS011;33768;48.578;11.574;2023-07-20T06:23:35;3.23;;;1.60;;
48002;SDS011;33768;48.578;11.574;2023-07-20T06:26:40;2.77;;;1.50;;
48002;SDS011;33768;48.578;11.574;2023-07-20T06:29:44;4.67;;;2.00;;
48002;SDS011;33768;48.578;11.574;2023-07-20T06:32:48;7.50;;;2.00;;
48002;SDS011;33768;48.578;11.574;2023-07-20T06:35:53;3.10;;;2.00;;
48002;SDS011;33768;48.578;11.574;2023-07-20T06:39:01;2.10;;;1.80;;
48002;SDS011;33768;48.578;11.574;2023-07-20T06:42:06;4.00;;;2.00;;
48002;SDS011;33768;48.578;11.574;2023-07-20T06:45:10;6.63;;;2.10;;
48002;SDS011;33768;48.578;11.574;2023-07-20T06:48:14;2.37;;;1.90;;
48002;SDS011;33768;48.578;11.574;2023-07-20T06:51:19;4.27;;;2.10;;
48002;SDS011;33768;48.578;11.574;2023-07-20T06:54:23;6.03;;;2.10;;
48002;SDS011;33768;48.578;11.574;2023-07-20T06:57:28;5.40;;;2.00;;
48002;SDS011;33768;48.578;11.574;2023-07-20T07:00:32;4.73;;;2.00;;
48002;SDS011;33768;48.578;11.574;2023-07-20T07:03:36;4.17;;;2.00;;
48002;SDS011;33768;48.578;11.574;2023-07-20T07:06:40;4.30;;;1.60;;
48002;SDS011;33768;48.578;11.574;2023-07-20T07:09:45;2.70;;;1.50;;
48002;SDS011;33768;48.578;11.574;2023-07-20T07:12:49;3.73;;;1.93;;
48002;SDS011;33768;48.578;11.574;2023-07-20T07:15:53;4.03;;;1.93;;
48002;SDS011;33768;48.578;11.574;2023-07-20T07:18:57;6.00;;;1.80;;
48002;SDS011;33768;48.578;11.574;2023-07-20T07:22:02;3.70;;;1.70;;
48002;SDS011;33768;48.578;11.574;2023-07-20T07:25:06;3.63;;;1.70;;
48002;SDS011;33768;48.578;11.574;2023-07-20T07:28:11;5.33;;;1.93;;
48002;SDS011;33768;48.578;11.574;2023-07-20T07:31:16;4.20;;;2.10;;
48002;SDS011;33768;48.578;11.574;2023-07-20T07:34:20;6.13;;;1.90;;
48002;SDS011;33768;48.578;11.574;2023-07-20T07:37:24;2.67;;;1.83;;
48002;SDS011;33768;48.578;11.574;2023-07-20T07:40:28;3.60;;;1.90;;
48002;SDS011;33768;48.578;11.574;2023-07-20T07:43:32;4.63;;;1.80;;
48002;SDS011;33768;48.578;11.574;2023-07-20T07:46:37;6.20;;;2.20;;
48002;SDS011;33768;48.578;11.574;2023-07-20T07:49:41;4.10;;;1.97;;
48002;SDS011;33768;48.578;11.574;2023-07-20T07:52:45;4.03;;;1.60;;
48002;SDS011;33768;48.578;11.574;2023-07-20T07:55:50;4.83;;;2.03;;
48002;SDS011;33768;48.578;11.574;2023-07-20T07:58:54;3.70;;;1.57;;
48002;SDS011;33768;48.578;11.574;2023-07-20T08:01:58;2.30;;;1.70;;
48002;SDS011;33768;48.578;11.574;2023-07-20T08:05:03;5.10;;;2.07;;
48002;SDS011;33768;48.578;11.574;2023-07-20T08:08:07;1.60;;;1.50;;
48002;SDS011;33768;48.578;11.574;2023-07-20T08:11:12;4.50;;;1.60;;
48002;SDS011;33768;48.578;11.574;2023-07-20T08:14:16;5.23;;;1.93;;
48002;SDS011;33768;48.578;11.574;2023-07-20T08:17:21;3.72;;;1.55;;
48002;SDS011;33768;48.578;11.574;2023-07-20T08:20:24;2.63;;;1.52;;
48002;SDS011;33768;48.578;11.574;2023-07-20T08:23:29;5.75;;;1.85;;
48002;SDS011;33768;48.578;11.574;2023-07-20T08:26:33;3.45;;;1.52;;
48002;SDS011;33768;48.578;11.574;2023-07-20T08:29:38;4.03;;;1.60;;
48002;SDS011;33768;48.578;11.574;2023-07-20T08:32:42;4.90;;;1.67;;
48002;SDS011;33768;48.578;11.574;2023-07-20T08:35:47;2.35;;;1.30;;
48002;SDS011;33768;48.578;11.574;2023-07-20T08:38:51;2.00;;;1.20;;
48002;SDS011;33768;48.578;11.574;2023-07-20T08:41:55;5.00;;;1.45;;
48002;SDS011;33768;48.578;11.574;2023-07-20T08:45:03;2.28;;;1.40;;
48002;SDS011;33768;48.578;11.574;2023-07-20T08:48:10;2.65;;;1.50;;
48002;SDS011;33768;48.578;11.574;2023-07-20T08:51:15;3.53;;;1.63;;
48002;SDS011;33768;48.578;11.574;2023-07-20T08:54:20;3.10;;;1.40;;
48002;SDS011;33768;48.578;11.574;2023-07-20T08:57:25;2.55;;;1.40;;
48002;SDS011;33768;48.578;11.574;2023-07-20T09:00:30;2.78;;;1.40;;
48002;SDS011;33768;48.578;11.574;2023-07-20T09:03:35;3.92;;;1.50;;
48002;SDS011;33768;48.578;11.574;2023-07-20T09:06:42;4.63;;;1.65;;
48002;SDS011;33768;48.578;11.574;2023-07-20T09:09:46;2.63;;;1.33;;
48002;SDS011;33768;48.578;11.574;2023-07-20T09:12:51;2.55;;;1.55;;
48002;SDS011;33768;48.578;11.574;2023-07-20T09:15:55;3.15;;;1.52;;
48002;SDS011;33768;48.578;11.574;2023-07-20T09:18:59;3.67;;;1.42;;
48002;SDS011;33768;48.578;11.574;2023-07-20T09:22:03;2.92;;;1.50;;
48002;SDS011;33768;48.578;11.574;2023-07-20T09:25:16;3.60;;;1.58;;
48002;SDS011;33768;48.578;11.574;2023-07-20T09:28:21;2.58;;;1.48;;
48002;SDS011;33768;48.578;11.574;2023-07-20T09:31:25;2.95;;;1.67;;
48002;SDS011;33768;48.578;11.574;2023-07-20T09:34:30;2.63;;;1.70;;
48002;SDS011;33768;48.578;11.574;2023-07-20T09:37:37;6.72;;;1.90;;
48002;SDS011;33768;48.578;11.574;2023-07-20T09:40:41;3.15;;;1.60;;
48002;SDS011;33768;48.578;11.574;2023-07-20T09:43:46;2.95;;;1.58;;
48002;SDS011;33768;48.578;11.574;2023-07-20T09:46:50;1.92;;;1.50;;
48002;SDS011;33768;48.578;11.574;2023-07-20T09:49:58;4.13;;;1.30;;
48002;SDS011;33768;48.578;11.574;2023-07-20T09:53:08;3.25;;;1.40;;
48002;SDS011;33768;48.578;11.574;2023-07-20T09:56:16;7.80;;;1.33;;
48002;SDS011;33768;48.578;11.574;2023-07-20T09:59:21;3.10;;;1.70;;
48002;SDS011;33768;48.578;11.574;2023-07-20T10:02:25;2.08;;;1.58;;
48002;SDS011;33768;48.578;11.574;2023-07-20T10:05:36;3.28;;;1.80;;
48002;SDS011;33768;48.578;11.574;2023-07-20T10:08:47;2.45;;;1.42;;
48002;SDS011;33768;48.578;11.574;2023-07-20T10:11:52;3.15;;;1.33;;
48002;SDS011;33768;48.578;11.574;2023-07-20T10:18:38;2.05;;;1.38;;
48002;SDS011;33768;48.578;11.574;2023-07-20T10:21:49;3.15;;;1.30;;
48002;SDS011;33768;48.578;11.574;2023-07-20T10:25:00;3.47;;;1.50;;
48002;SDS011;33768;48.578;11.574;2023-07-20T10:28:05;3.50;;;1.50;;
48002;SDS011;33768;48.578;11.574;2023-07-20T10:31:10;4.97;;;1.30;;
48002;SDS011;33768;48.578;11.574;2023-07-20T10:34:16;6.78;;;1.83;;
48002;SDS011;33768;48.578;11.574;2023-07-20T10:40:54;3.55;;;1.33;;
48002;SDS011;33768;48.578;11.574;2023-07-20T10:44:04;4.55;;;1.48;;
48002;SDS011;33768;48.578;11.574;2023-07-20T10:47:10;3.05;;;1.70;;
48002;SDS011;33768;48.578;11.574;2023-07-20T10:50:15;5.30;;;1.70;;
48002;SDS011;33768;48.578;11.574;2023-07-20T10:53:20;4.22;;;1.60;;
48002;SDS011;33768;48.578;11.574;2023-07-20T10:56:27;3.17;;;1.58;;
48002;SDS011;33768;48.578;11.574;2023-07-20T11:02:46;5.65;;;1.63;;
48002;SDS011;33768;48.578;11.574;2023-07-20T11:05:51;1.63;;;1.40;;
48002;SDS011;33768;48.578;11.574;2023-07-20T11:09:11;4.20;;;1.50;;
48002;SDS011;33768;48.578;11.574;2023-07-20T11:12:19;3.53;;;1.60;;
48002;SDS011;33768;48.578;11.574;2023-07-20T11:15:23;3.35;;;1.60;;
48002;SDS011;33768;48.578;11.574;2023-07-20T11:18:27;3.33;;;1.60;;
48002;SDS011;33768;48.578;11.574;2023-07-20T11:21:35;2.70;;;1.60;;
48002;SDS011;33768;48.578;11.574;2023-07-20T11:24:41;2.88;;;1.70;;
48002;SDS011;33768;48.578;11.574;2023-07-20T11:27:46;4.35;;;1.73;;
48002;SDS011;33768;48.578;11.574;2023-07-20T11:30:52;2.17;;;1.70;;
48002;SDS011;33768;48.578;11.574;2023-07-20T11:33:57;2.75;;;1.38;;
48002;SDS011;33768;48.578;11.574;2023-07-20T11:37:02;3.97;;;1.83;;
48002;SDS011;33768;48.578;11.574;2023-07-20T11:40:08;4.80;;;1.70;;
48002;SDS011;33768;48.578;11.574;2023-07-20T11:43:13;3.88;;;2.15;;
48002;SDS011;33768;48.578;11.574;2023-07-20T11:46:18;2.72;;;1.63;;
48002;SDS011;33768;48.578;11.574;2023-07-20T11:49:22;4.95;;;1.50;;
48002;SDS011;33768;48.578;11.574;2023-07-20T11:52:26;3.25;;;1.40;;
48002;SDS011;33768;48.578;11.574;2023-07-20T11:55:31;4.43;;;1.45;;
48002;SDS011;33768;48.578;11.574;2023-07-20T11:58:36;1.38;;;1.25;;
48002;SDS011;33768;48.578;11.574;2023-07-20T12:01:45;3.05;;;1.33;;
48002;SDS011;33768;48.578;11.574;2023-07-20T12:04:50;7.18;;;1.60;;
48002;SDS011;33768;48.578;11.574;2023-07-20T12:07:54;2.67;;;1.40;;
48002;SDS011;33768;48.578;11.574;2023-07-20T12:10:59;4.15;;;1.35;;
48002;SDS011;33768;48.578;11.574;2023-07-20T12:14:04;4.05;;;1.67;;
48002;SDS011;33768;48.578;11.574;2023-07-20T12:17:11;3.58;;;1.88;;
48002;SDS011;33768;48.578;11.574;2023-07-20T12:20:30;3.17;;;1.63;;
48002;SDS011;33768;48.578;11.574;2023-07-20T12:23:34;3.97;;;1.25;;
48002;SDS011;33768;48.578;11.574;2023-07-20T12:26:40;5.20;;;1.20;;
48002;SDS011;33768;48.578;11.574;2023-07-20T12:29:45;1.35;;;1.20;;
48002;SDS011;33768;48.578;11.574;2023-07-20T12:32:49;1.90;;;1.10;;
48002;SDS011;33768;48.578;11.574;2023-07-20T12:35:53;2.72;;;1.20;;
48002;SDS011;33768;48.578;11.574;2023-07-20T12:39:00;2.97;;;1.20;;
48002;SDS011;33768;48.578;11.574;2023-07-20T12:42:05;2.13;;;1.10;;
48002;SDS011;33768;48.578;11.574;2023-07-20T12:45:09;2.65;;;1.20;;
48002;SDS011;33768;48.578;11.574;2023-07-20T12:48:14;3.25;;;1.20;;
48002;SDS011;33768;48.578;11.574;2023-07-20T12:51:19;2.30;;;1.23;;
48002;SDS011;33768;48.578;11.574;2023-07-20T12:54:23;3.67;;;1.13;;
48002;SDS011;33768;48.578;11.574;2023-07-20T12:57:27;1.77;;;1.13;;
48002;SDS011;33768;48.578;11.574;2023-07-20T13:00:32;1.67;;;1.20;;
48002;SDS011;33768;48.578;11.574;2023-07-20T13:03:35;1.52;;;1.15;;
48002;SDS011;33768;48.578;11.574;2023-07-20T13:06:40;2.38;;;1.50;;
48002;SDS011;33768;48.578;11.574;2023-07-20T13:09:45;1.63;;;1.20;;
48002;SDS011;33768;48.578;11.574;2023-07-20T13:12:49;3.47;;;1.30;;
48002;SDS011;33768;48.578;11.574;2023-07-20T13:15:54;2.10;;;1.30;;
48002;SDS011;33768;48.578;11.574;2023-07-20T13:18:58;2.92;;;1.85;;
48002;SDS011;33768;48.578;11.574;2023-07-20T13:22:03;2.67;;;1.20;;
48002;SDS011;33768;48.578;11.574;2023-07-20T13:25:08;4.13;;;1.35;;
48002;SDS011;33768;48.578;11.574;2023-07-20T13:28:13;4.75;;;1.27;;
48002;SDS011;33768;48.578;11.574;2023-07-20T13:31:17;1.45;;;1.23;;
48002;SDS011;33768;48.578;11.574;2023-07-20T13:34:21;2.13;;;1.30;;
48002;SDS011;33768;48.578;11.574;2023-07-20T13:37:26;2.33;;;1.30;;
48002;SDS011;33768;48.578;11.574;2023-07-20T13:40:31;3.22;;;1.30;;
48002;SDS011;33768;48.578;11.574;2023-07-20T13:43:35;4.38;;;1.23;;
48002;SDS011;33768;48.578;11.574;2023-07-20T13:46:39;5.57;;;1.20;;
48002;SDS011;33768;48.578;11.574;2023-07-20T13:49:43;4.53;;;1.33;;
48002;SDS011;33768;48.578;11.574;2023-07-20T13:52:47;1.85;;;1.20;;
48002;SDS011;33768;48.578;11.574;2023-07-20T13:55:51;1.30;;;1.20;;
48002;SDS011;33768;48.578;11.574;2023-07-20T13:58:56;2.25;;;1.20;;
48002;SDS011;33768;48.578;11.574;2023-07-20T14:02:00;1.50;;;1.10;;
48002;SDS011;33768;48.578;11.574;2023-07-20T14:05:04;9.85;;;2.17;;
48002;SDS011;33768;48.578;11.574;2023-07-20T14:08:08;3.25;;;1.20;;
48002;SDS011;33768;48.578;11.574;2023-07-20T14:11:13;2.63;;;1.48;;
48002;SDS011;33768;48.578;11.574;2023-07-20T14:14:17;3.40;;;1.27;;
48002;SDS011;33768;48.578;11.574;2023-07-20T14:17:21;2.65;;;1.23;;
48002;SDS011;33768;48.578;11.574;2023-07-20T14:20:25;2.97;;;1.10;;
48002;SDS011;33768;48.578;11.574;2023-07-20T14:23:30;3.20;;;1.50;;
48002;SDS011;33768;48.578;11.574;2023-07-20T14:26:34;1.30;;;1.20;;
48002;SDS011;33768;48.578;11.574;2023-07-20T14:29:39;3.08;;;1.10;;
48002;SDS011;33768;48.578;11.574;2023-07-20T14:32:43;2.13;;;1.13;;
48002;SDS011;33768;48.578;11.574;2023-07-20T14:35:47;2.47;;;1.40;;
48002;SDS011;33768;48.578;11.574;2023-07-20T14:38:51;1.92;;;1.23;;
48002;SDS011;33768;48.578;11.574;2023-07-20T14:41:55;3.47;;;1.30;;
48002;SDS011;33768;48.578;11.574;2023-07-20T14:44:59;1.52;;;1.08;;
48002;SDS011;33768;48.578;11.574;2023-07-20T14:48:03;1.48;;;1.10;;
48002;SDS011;33768;48.578;11.574;2023-07-20T14:51:08;3.90;;;1.40;;
48002;SDS011;33768;48.578;11.574;2023-07-20T14:54:12;1.95;;;1.40;;
48002;SDS011;33768;48.578;11.574;2023-07-20T14:57:16;5.57;;;1.00;;
48002;SDS011;33768;48.578;11.574;2023-07-20T15:00:20;1.60;;;1.35;;
48002;SDS011;33768;48.578;11.574;2023-07-20T15:03:25;4.35;;;1.35;;
48002;SDS011;33768;48.578;11.574;2023-07-20T15:06:29;3.97;;;1.45;;
48002;SDS011;33768;48.578;11.574;2023-07-20T15:09:34;1.58;;;1.40;;
48002;SDS011;33768;48.578;11.574;2023-07-20T15:12:38;2.53;;;1.23;;
48002;SDS011;33768;48.578;11.574;2023-07-20T15:15:42;4.15;;;1.30;;
48002;SDS011;33768;48.578;11.574;2023-07-20T15:18:46;1.85;;;1.25;;
48002;SDS011;33768;48.578;11.574;2023-07-20T15:21:51;2.25;;;1.58;;
48002;SDS011;33768;48.578;11.574;2023-07-20T15:24:56;2.28;;;1.15;;
48002;SDS011;33768;48.578;11.574;2023-07-20T15:28:00;1.75;;;1.30;;
48002;SDS011;33768;48.578;11.574;2023-07-20T15:31:04;2.53;;;1.35;;
48002;SDS011;33768;48.578;11.574;2023-07-20T15:34:08;2.90;;;1.38;;
48002;SDS011;33768;48.578;11.574;2023-07-20T15:37:17;2.30;;;1.40;;
48002;SDS011;33768;48.578;11.574;2023-07-20T15:40:21;3.58;;;1.08;;
48002;SDS011;33768;48.578;11.574;2023-07-20T15:43:25;1.80;;;1.30;;
48002;SDS011;33768;48.578;11.574;2023-07-20T15:49:42;2.03;;;1.20;;
48002;SDS011;33768;48.578;11.574;2023-07-20T15:52:46;4.38;;;1.40;;
48002;SDS011;33768;48.578;11.574;2023-07-20T15:55:54;2.92;;;1.30;;
48002;SDS011;33768;48.578;11.574;2023-07-20T15:58:59;1.63;;;1.20;;
48002;SDS011;33768;48.578;11.574;2023-07-20T16:02:03;2.05;;;1.38;;
48002;SDS011;33768;48.578;11.574;2023-07-20T16:05:08;6.97;;;1.70;;
48002;SDS011;33768;48.578;11.574;2023-07-20T16:08:13;1.52;;;1.30;;
48002;SDS011;33768;48.578;11.574;2023-07-20T16:11:17;5.47;;;1.73;;
48002;SDS011;33768;48.578;11.574;2023-07-20T16:14:22;3.55;;;1.50;;
48002;SDS011;33768;48.578;11.574;2023-07-20T16:17:26;2.63;;;1.58;;
48002;SDS011;33768;48.578;11.574;2023-07-20T16:20:30;2.25;;;1.38;;
48002;SDS011;33768;48.578;11.574;2023-07-20T16:23:34;2.42;;;1.58;;
48002;SDS011;33768;48.578;11.574;2023-07-20T16:26:39;4.22;;;1.20;;
48002;SDS011;33768;48.578;11.574;2023-07-20T16:29:47;3.33;;;1.77;;
48002;SDS011;33768;48.578;11.574;2023-07-20T16:32:51;4.22;;;1.73;;
48002;SDS011;33768;48.578;11.574;2023-07-20T16:35:55;2.60;;;1.70;;
48002;SDS011;33768;48.578;11.574;2023-07-20T16:39:00;5.88;;;1.83;;
48002;SDS011;33768;48.578;11.574;2023-07-20T16:42:04;1.60;;;1.30;;
48002;SDS011;33768;48.578;11.574;2023-07-20T16:45:08;3.13;;;1.67;;
48002;SDS011;33768;48.578;11.574;2023-07-20T16:48:13;5.05;;;1.60;;
48002;SDS011;33768;48.578;11.574;2023-07-20T16:51:17;3.03;;;1.60;;
48002;SDS011;33768;48.578;11.574;2023-07-20T16:54:21;4.88;;;1.70;;
48002;SDS011;33768;48.578;11.574;2023-07-20T16:57:25;3.28;;;1.60;;
48002;SDS011;33768;48.578;11.574;2023-07-20T17:00:30;3.60;;;1.55;;
48002;SDS011;33768;48.578;11.574;2023-07-20T17:03:34;4.10;;;1.80;;
48002;SDS011;33768;48.578;11.574;2023-07-20T17:06:39;2.22;;;1.67;;
48002;SDS011;33768;48.578;11.574;2023-07-20T17:09:44;3.38;;;1.40;;
48002;SDS011;33768;48.578;11.574;2023-07-20T17:12:48;5.25;;;1.85;;
48002;SDS011;33768;48.578;11.574;2023-07-20T17:15:52;2.35;;;1.52;;
48002;SDS011;33768;48.578;11.574;2023-07-20T17:18:56;3.00;;;1.90;;
48002;SDS011;33768;48.578;11.574;2023-07-20T17:22:01;4.85;;;1.48;;
48002;SDS011;33768;48.578;11.574;2023-07-20T17:25:05;2.90;;;1.48;;
48002;SDS011;33768;48.578;11.574;2023-07-20T17:28:10;6.03;;;1.65;;
48002;SDS011;33768;48.578;11.574;2023-07-20T17:31:14;4.50;;;1.40;;
48002;SDS011;33768;48.578;11.574;2023-07-20T17:34:18;2.92;;;1.45;;
48002;SDS011;33768;48.578;11.574;2023-07-20T17:37:23;1.73;;;1.40;;
48002;SDS011;33768;48.578;11.574;2023-07-20T17:40:27;2.25;;;1.25;;
48002;SDS011;33768;48.578;11.574;2023-07-20T17:43:32;3.42;;;1.52;;
48002;SDS011;33768;48.578;11.574;2023-07-20T17:46:36;5.45;;;1.63;;
48002;SDS011;33768;48.578;11.574;2023-07-20T17:49:40;2.07;;;1.53;;
48002;SDS011;33768;48.578;11.574;2023-07-20T17:52:44;5.23;;;1.80;;
48002;SDS011;33768;48.578;11.574;2023-07-20T17:55:48;3.70;;;1.67;;
48002;SDS011;33768;48.578;11.574;2023-07-20T17:58:52;5.60;;;1.70;;
48002;SDS011;33768;48.578;11.574;2023-07-20T18:01:57;3.13;;;1.80;;
48002;SDS011;33768;48.578;11.574;2023-07-20T18:05:01;3.80;;;1.67;;
48002;SDS011;33768;48.578;11.574;2023-07-20T18:08:05;3.97;;;1.70;;
48002;SDS011;33768;48.578;11.574;2023-07-20T18:11:09;3.13;;;1.70;;
48002;SDS011;33768;48.578;11.574;2023-07-20T18:14:14;3.70;;;1.70;;
48002;SDS011;33768;48.578;11.574;2023-07-20T18:17:18;5.33;;;1.43;;
48002;SDS011;33768;48.578;11.574;2023-07-20T18:20:22;2.90;;;1.50;;
48002;SDS011;33768;48.578;11.574;2023-07-20T18:23:26;2.47;;;1.63;;
48002;SDS011;33768;48.578;11.574;2023-07-20T18:26:31;3.60;;;1.87;;
48002;SDS011;33768;48.578;11.574;2023-07-20T18:29:36;6.30;;;1.80;;
48002;SDS011;33768;48.578;11.574;2023-07-20T18:32:40;3.33;;;1.70;;
48002;SDS011;33768;48.578;11.574;2023-07-20T18:35:44;2.73;;;1.57;;
48002;SDS011;33768;48.578;11.574;2023-07-20T18:38:48;5.73;;;1.83;;
48002;SDS011;33768;48.578;11.574;2023-07-20T18:41:52;5.87;;;1.90;;